GFA216 OKKK-OBBI
Flight info
| Callsign | GFA216 |
|---|---|
| Flight time | N/A |
| Altitude | 27000 |
| Route | BOXIK B416 IMDOX P975 LONOS L703 KOBOK KOBOK1 |
| Aircraft | A20N/M-VGDW/C |
Departure
| Time | 2026-04-28 16:20 |
|---|---|
| Airport | Kuwait International Airport (OKKK) |
Arrival
| Time | N/A |
|---|---|
| Airport | Bahrain International Airport (OBBI) |
| Time | Latitude | Longitude | Altitude | Speed | Heading |
|---|---|---|---|---|---|
| 2026-04-28 15:48 | 29.23768 | 47.97172 | 168 ft | 0 kts | 67° |
| 2026-04-28 16:08 | 29.23768 | 47.97171 | 175 ft | 4 kts | 67° |
| 2026-04-28 16:09 | 29.23750 | 47.97120 | 175 ft | 3 kts | 81° |
| 2026-04-28 16:09 | 29.23751 | 47.97099 | 175 ft | 2 kts | 112° |
| 2026-04-28 16:09 | 29.23760 | 47.97082 | 175 ft | 2 kts | 137° |
| 2026-04-28 16:10 | 29.23772 | 47.97071 | 176 ft | 0 kts | 153° |
| 2026-04-28 16:10 | 29.23764 | 47.97076 | 175 ft | 0 kts | 152° |
| 2026-04-28 16:12 | 29.23761 | 47.97078 | 175 ft | 0 kts | 152° |
| 2026-04-28 16:12 | 29.23754 | 47.97082 | 176 ft | 4 kts | 153° |
| 2026-04-28 16:13 | 29.23695 | 47.97112 | 175 ft | 1 kts | 155° |
| 2026-04-28 16:13 | 29.23692 | 47.97114 | 175 ft | 0 kts | 155° |
| 2026-04-28 16:13 | 29.23654 | 47.97135 | 175 ft | 7 kts | 146° |
| 2026-04-28 16:14 | 29.23544 | 47.97161 | 175 ft | 12 kts | 232° |
| 2026-04-28 16:14 | 29.23500 | 47.96945 | 175 ft | 16 kts | 277° |
| 2026-04-28 16:15 | 29.23463 | 47.96722 | 173 ft | 20 kts | 167° |
| 2026-04-28 16:15 | 29.23330 | 47.96785 | 173 ft | 22 kts | 155° |
| 2026-04-28 16:15 | 29.23189 | 47.96860 | 172 ft | 23 kts | 155° |
| 2026-04-28 16:16 | 29.22876 | 47.97026 | 172 ft | 27 kts | 155° |
| 2026-04-28 16:16 | 29.22703 | 47.97118 | 172 ft | 28 kts | 155° |
| 2026-04-28 16:17 | 29.22327 | 47.97318 | 171 ft | 31 kts | 155° |
| 2026-04-28 16:17 | 29.22124 | 47.97425 | 170 ft | 33 kts | 155° |
| 2026-04-28 16:17 | 29.21912 | 47.97537 | 170 ft | 34 kts | 155° |
| 2026-04-28 16:17 | 29.21691 | 47.97654 | 171 ft | 36 kts | 155° |
| 2026-04-28 16:18 | 29.21460 | 47.97777 | 172 ft | 37 kts | 155° |
| 2026-04-28 16:18 | 29.21325 | 47.97850 | 173 ft | 15 kts | 155° |
| 2026-04-28 16:18 | 29.21242 | 47.97790 | 173 ft | 17 kts | 258° |
| 2026-04-28 16:18 | 29.21292 | 47.97662 | 172 ft | 19 kts | 304° |
| 2026-04-28 16:19 | 29.21423 | 47.97551 | 171 ft | 33 kts | 335° |
| 2026-04-28 16:19 | 29.21791 | 47.97356 | 170 ft | 92 kts | 334° |
| 2026-04-28 16:19 | 29.22565 | 47.96945 | 168 ft | 151 kts | 335° |
| 2026-04-28 16:19 | 29.23623 | 47.96386 | 470 ft | 168 kts | 334° |
| 2026-04-28 16:20 | 29.24659 | 47.95839 | 1196 ft | 162 kts | 334° |
| 2026-04-28 16:20 | 29.25679 | 47.95301 | 1869 ft | 159 kts | 334° |
| 2026-04-28 16:20 | 29.26669 | 47.94782 | 2511 ft | 157 kts | 338° |
| 2026-04-28 16:20 | 29.27841 | 47.94811 | 2781 ft | 190 kts | 25° |
| 2026-04-28 16:21 | 29.28802 | 47.95954 | 3215 ft | 218 kts | 67° |
| 2026-04-28 16:21 | 29.28973 | 47.97782 | 3611 ft | 248 kts | 103° |
| 2026-04-28 16:21 | 29.28154 | 47.99577 | 4271 ft | 263 kts | 129° |
| 2026-04-28 16:21 | 29.26991 | 48.01201 | 5217 ft | 269 kts | 129° |
| 2026-04-28 16:22 | 29.25828 | 48.02896 | 6202 ft | 273 kts | 128° |
| 2026-04-28 16:22 | 29.24689 | 48.04658 | 7179 ft | 277 kts | 126° |
| 2026-04-28 16:22 | 29.23568 | 48.06460 | 8146 ft | 281 kts | 126° |
| 2026-04-28 16:22 | 29.22444 | 48.08313 | 9113 ft | 285 kts | 125° |
| 2026-04-28 16:23 | 29.21314 | 48.10198 | 10070 ft | 289 kts | 125° |
| 2026-04-28 16:23 | 29.20161 | 48.12138 | 10759 ft | 305 kts | 124° |
| 2026-04-28 16:23 | 29.18919 | 48.14233 | 11150 ft | 329 kts | 124° |
| 2026-04-28 16:23 | 29.17590 | 48.16479 | 11484 ft | 353 kts | 124° |
| 2026-04-28 16:24 | 29.16661 | 48.18053 | 11753 ft | 364 kts | 124° |
| 2026-04-28 16:24 | 29.15225 | 48.20489 | 12454 ft | 372 kts | 124° |
| 2026-04-28 16:24 | 29.13289 | 48.23774 | 13511 ft | 378 kts | 124° |
| 2026-04-28 16:24 | 29.11810 | 48.26278 | 14287 ft | 383 kts | 124° |
| 2026-04-28 16:25 | 29.10816 | 48.27961 | 14675 ft | 386 kts | 124° |
| 2026-04-28 16:25 | 29.09310 | 48.30519 | 14963 ft | 388 kts | 124° |
| 2026-04-28 16:25 | 29.07802 | 48.33085 | 15022 ft | 389 kts | 124° |
| 2026-04-28 16:25 | 29.06285 | 48.35651 | 15070 ft | 388 kts | 124° |
| 2026-04-28 16:26 | 29.04765 | 48.38218 | 15604 ft | 392 kts | 124° |
| 2026-04-28 16:26 | 29.03230 | 48.40815 | 16298 ft | 395 kts | 124° |
| 2026-04-28 16:26 | 29.01678 | 48.43437 | 16976 ft | 398 kts | 124° |
| 2026-04-28 16:26 | 29.00117 | 48.46073 | 17631 ft | 402 kts | 124° |
| 2026-04-28 16:27 | 28.98557 | 48.48697 | 18247 ft | 406 kts | 124° |
| 2026-04-28 16:27 | 28.96967 | 48.51377 | 18854 ft | 409 kts | 124° |
| 2026-04-28 16:27 | 28.93730 | 48.56821 | 20036 ft | 417 kts | 124° |
| 2026-04-28 16:28 | 28.92095 | 48.59575 | 20603 ft | 421 kts | 124° |
| 2026-04-28 16:28 | 28.90452 | 48.62348 | 21161 ft | 424 kts | 124° |
| 2026-04-28 16:28 | 28.88786 | 48.65147 | 21726 ft | 428 kts | 124° |
| 2026-04-28 16:28 | 28.87111 | 48.67967 | 22279 ft | 431 kts | 124° |
| 2026-04-28 16:29 | 28.83736 | 48.73644 | 23356 ft | 438 kts | 124° |
| 2026-04-28 16:29 | 28.80311 | 48.79468 | 24365 ft | 445 kts | 121° |
| 2026-04-28 16:30 | 28.78769 | 48.82549 | 24844 ft | 448 kts | 120° |
| 2026-04-28 16:30 | 28.77246 | 48.85658 | 25309 ft | 452 kts | 120° |
| 2026-04-28 16:30 | 28.75706 | 48.88794 | 25762 ft | 455 kts | 120° |
| 2026-04-28 16:30 | 28.74157 | 48.91948 | 26205 ft | 458 kts | 120° |
| 2026-04-28 16:31 | 28.72595 | 48.95132 | 26626 ft | 461 kts | 120° |
| 2026-04-28 16:31 | 28.71027 | 48.98330 | 26949 ft | 464 kts | 120° |
| 2026-04-28 16:31 | 28.69464 | 49.01511 | 27025 ft | 455 kts | 120° |
| 2026-04-28 16:31 | 28.67935 | 49.04611 | 27024 ft | 455 kts | 120° |
| 2026-04-28 16:32 | 28.66383 | 49.07763 | 27012 ft | 455 kts | 120° |
| 2026-04-28 16:32 | 28.63287 | 49.14050 | 27001 ft | 455 kts | 120° |
| 2026-04-28 16:32 | 28.61733 | 49.17193 | 27001 ft | 455 kts | 120° |
| 2026-04-28 16:33 | 28.60159 | 49.20310 | 27000 ft | 455 kts | 122° |
| 2026-04-28 16:33 | 28.58952 | 49.22259 | 26999 ft | 454 kts | 129° |
| 2026-04-28 16:33 | 28.55910 | 49.25539 | 27003 ft | 454 kts | 145° |
| 2026-04-28 16:33 | 28.53177 | 49.27363 | 27009 ft | 459 kts | 153° |
| 2026-04-28 16:34 | 28.50404 | 49.29187 | 27004 ft | 461 kts | 146° |
| 2026-04-28 16:34 | 28.47891 | 49.31453 | 27006 ft | 462 kts | 140° |
| 2026-04-28 16:34 | 28.45464 | 49.33851 | 27004 ft | 462 kts | 139° |
| 2026-04-28 16:34 | 28.43056 | 49.36280 | 27001 ft | 462 kts | 139° |